sensor_id;sensor_type;location;lat;lon;timestamp;pressure;altitude;pressure_sealevel;temperature;humidity
5872;BME280;2962;51.312;7.378;2023-06-10T00:02:12;97361.72;;;18.68;100.00
5872;BME280;2962;51.312;7.378;2023-06-10T00:04:38;97363.31;;;18.69;100.00
5872;BME280;2962;51.312;7.378;2023-06-10T00:07:04;97366.59;;;18.60;100.00
5872;BME280;2962;51.312;7.378;2023-06-10T00:09:34;97363.19;;;18.52;100.00
5872;BME280;2962;51.312;7.378;2023-06-10T00:11:59;97355.03;;;18.49;100.00
5872;BME280;2962;51.312;7.378;2023-06-10T00:14:25;97360.44;;;18.52;100.00
5872;BME280;2962;51.312;7.378;2023-06-10T00:16:51;97354.78;;;18.40;100.00
5872;BME280;2962;51.312;7.378;2023-06-10T00:19:17;97362.28;;;18.39;100.00
5872;BME280;2962;51.312;7.378;2023-06-10T00:21:43;97359.78;;;18.25;100.00
5872;BME280;2962;51.312;7.378;2023-06-10T00:24:10;97363.81;;;18.40;100.00
5872;BME280;2962;51.312;7.378;2023-06-10T00:26:38;97349.44;;;18.29;100.00
5872;BME280;2962;51.312;7.378;2023-06-10T00:29:03;97356.75;;;18.39;100.00
5872;BME280;2962;51.312;7.378;2023-06-10T00:31:28;97358.31;;;18.40;100.00
5872;BME280;2962;51.312;7.378;2023-06-10T00:33:54;97359.25;;;18.34;100.00
5872;BME280;2962;51.312;7.378;2023-06-10T00:36:19;97356.59;;;18.26;100.00
5872;BME280;2962;51.312;7.378;2023-06-10T00:38:44;97367.22;;;18.28;100.00
5872;BME280;2962;51.312;7.378;2023-06-10T00:41:10;97367.63;;;18.26;100.00
5872;BME280;2962;51.312;7.378;2023-06-10T00:43:35;97354.38;;;18.18;100.00
5872;BME280;2962;51.312;7.378;2023-06-10T00:46:00;97351.81;;;18.07;100.00
5872;BME280;2962;51.312;7.378;2023-06-10T00:48:27;97364.94;;;18.23;100.00
5872;BME280;2962;51.312;7.378;2023-06-10T00:50:53;97366.16;;;18.22;100.00
5872;BME280;2962;51.312;7.378;2023-06-10T00:53:19;97366.66;;;18.13;100.00
5872;BME280;2962;51.312;7.378;2023-06-10T00:55:48;97350.41;;;17.99;100.00
5872;BME280;2962;51.312;7.378;2023-06-10T00:58:14;97364.56;;;17.97;100.00
5872;BME280;2962;51.312;7.378;2023-06-10T01:00:40;97357.56;;;17.93;100.00
5872;BME280;2962;51.312;7.378;2023-06-10T01:03:05;97363.75;;;18.00;100.00
5872;BME280;2962;51.312;7.378;2023-06-10T01:05:33;97366.19;;;17.95;100.00
5872;BME280;2962;51.312;7.378;2023-06-10T01:08:03;97369.97;;;17.81;100.00
5872;BME280;2962;51.312;7.378;2023-06-10T01:10:38;97367.69;;;17.76;100.00
5872;BME280;2962;51.312;7.378;2023-06-10T01:13:07;97370.63;;;17.62;100.00
5872;BME280;2962;51.312;7.378;2023-06-10T01:15:34;97363.72;;;17.50;100.00
5872;BME280;2962;51.312;7.378;2023-06-10T01:18:02;97364.34;;;17.34;100.00
5872;BME280;2962;51.312;7.378;2023-06-10T01:20:29;97370.22;;;17.36;100.00
5872;BME280;2962;51.312;7.378;2023-06-10T01:22:57;97368.75;;;17.28;100.00
5872;BME280;2962;51.312;7.378;2023-06-10T01:25:23;97371.34;;;17.39;100.00
5872;BME280;2962;51.312;7.378;2023-06-10T01:27:55;97364.41;;;17.30;100.00
5872;BME280;2962;51.312;7.378;2023-06-10T01:30:27;97374.84;;;17.43;100.00
5872;BME280;2962;51.312;7.378;2023-06-10T01:32:55;97365.47;;;17.37;100.00
5872;BME280;2962;51.312;7.378;2023-06-10T01:35:24;97375.63;;;17.43;100.00
5872;BME280;2962;51.312;7.378;2023-06-10T01:37:53;97374.16;;;17.35;100.00
5872;BME280;2962;51.312;7.378;2023-06-10T01:40:19;97365.25;;;17.24;100.00
5872;BME280;2962;51.312;7.378;2023-06-10T01:42:45;97374.97;;;17.32;100.00
5872;BME280;2962;51.312;7.378;2023-06-10T01:45:11;97356.75;;;17.15;100.00
5872;BME280;2962;51.312;7.378;2023-06-10T01:47:36;97372.38;;;17.21;100.00
5872;BME280;2962;51.312;7.378;2023-06-10T01:50:01;97363.91;;;17.08;100.00
5872;BME280;2962;51.312;7.378;2023-06-10T01:52:26;97371.28;;;17.15;100.00
5872;BME280;2962;51.312;7.378;2023-06-10T01:54:52;97353.69;;;17.05;100.00
5872;BME280;2962;51.312;7.378;2023-06-10T01:57:18;97370.59;;;17.07;100.00
5872;BME280;2962;51.312;7.378;2023-06-10T01:59:43;97366.22;;;17.10;100.00
5872;BME280;2962;51.312;7.378;2023-06-10T02:02:10;97370.66;;;17.04;100.00
5872;BME280;2962;51.312;7.378;2023-06-10T02:04:36;97367.56;;;16.98;100.00
5872;BME280;2962;51.312;7.378;2023-06-10T02:07:01;97371.50;;;16.97;100.00
5872;BME280;2962;51.312;7.378;2023-06-10T02:09:29;97374.53;;;17.06;100.00
5872;BME280;2962;51.312;7.378;2023-06-10T02:11:54;97369.13;;;16.99;100.00
5872;BME280;2962;51.312;7.378;2023-06-10T02:14:20;97377.28;;;17.06;100.00
5872;BME280;2962;51.312;7.378;2023-06-10T02:16:45;97370.22;;;17.05;100.00
5872;BME280;2962;51.312;7.378;2023-06-10T02:19:11;97366.00;;;16.97;100.00
5872;BME280;2962;51.312;7.378;2023-06-10T02:21:37;97365.19;;;17.00;100.00
5872;BME280;2962;51.312;7.378;2023-06-10T02:24:03;97375.00;;;17.01;100.00
5872;BME280;2962;51.312;7.378;2023-06-10T02:26:28;97375.81;;;16.98;100.00
5872;BME280;2962;51.312;7.378;2023-06-10T02:28:53;97363.22;;;17.01;100.00
5872;BME280;2962;51.312;7.378;2023-06-10T02:31:18;97365.00;;;17.15;100.00
5872;BME280;2962;51.312;7.378;2023-06-10T02:33:44;97364.09;;;17.21;100.00
5872;BME280;2962;51.312;7.378;2023-06-10T02:36:10;97368.13;;;17.44;100.00
5872;BME280;2962;51.312;7.378;2023-06-10T02:38:40;97364.25;;;17.41;100.00
5872;BME280;2962;51.312;7.378;2023-06-10T02:41:06;97356.09;;;17.34;100.00
5872;BME280;2962;51.312;7.378;2023-06-10T02:43:31;97368.09;;;17.17;100.00
5872;BME280;2962;51.312;7.378;2023-06-10T02:45:56;97379.22;;;17.09;100.00
5872;BME280;2962;51.312;7.378;2023-06-10T02:48:23;97378.91;;;17.04;100.00
5872;BME280;2962;51.312;7.378;2023-06-10T02:50:49;97369.91;;;17.00;100.00
5872;BME280;2962;51.312;7.378;2023-06-10T02:53:14;97384.88;;;16.99;100.00
5872;BME280;2962;51.312;7.378;2023-06-10T02:55:40;97380.72;;;16.83;100.00
5872;BME280;2962;51.312;7.378;2023-06-10T02:58:06;97380.34;;;16.81;100.00
5872;BME280;2962;51.312;7.378;2023-06-10T03:00:32;97375.84;;;16.95;100.00
5872;BME280;2962;51.312;7.378;2023-06-10T03:02:57;97370.09;;;17.16;100.00
5872;BME280;2962;51.312;7.378;2023-06-10T03:05:23;97373.06;;;17.29;100.00
5872;BME280;2962;51.312;7.378;2023-06-10T03:07:48;97370.72;;;17.27;100.00
5872;BME280;2962;51.312;7.378;2023-06-10T03:10:14;97364.34;;;17.34;100.00
5872;BME280;2962;51.312;7.378;2023-06-10T03:12:40;97368.81;;;17.51;100.00
5872;BME280;2962;51.312;7.378;2023-06-10T03:15:05;97364.03;;;17.55;100.00
5872;BME280;2962;51.312;7.378;2023-06-10T03:17:31;97376.97;;;17.58;100.00
5872;BME280;2962;51.312;7.378;2023-06-10T03:19:57;97376.25;;;17.54;100.00
5872;BME280;2962;51.312;7.378;2023-06-10T03:22:22;97380.97;;;17.54;100.00
5872;BME280;2962;51.312;7.378;2023-06-10T03:24:48;97375.41;;;17.57;100.00
5872;BME280;2962;51.312;7.378;2023-06-10T03:27:15;97373.44;;;17.58;100.00
5872;BME280;2962;51.312;7.378;2023-06-10T03:29:41;97377.03;;;17.55;100.00
5872;BME280;2962;51.312;7.378;2023-06-10T03:32:07;97360.09;;;17.56;100.00
5872;BME280;2962;51.312;7.378;2023-06-10T03:34:32;97375.13;;;17.48;100.00
5872;BME280;2962;51.312;7.378;2023-06-10T03:36:58;97370.88;;;17.44;100.00
5872;BME280;2962;51.312;7.378;2023-06-10T03:39:25;97377.38;;;17.30;100.00
5872;BME280;2962;51.312;7.378;2023-06-10T03:41:50;97379.16;;;17.44;100.00
5872;BME280;2962;51.312;7.378;2023-06-10T03:44:16;97379.63;;;17.39;100.00
5872;BME280;2962;51.312;7.378;2023-06-10T03:46:41;97372.75;;;17.23;100.00
5872;BME280;2962;51.312;7.378;2023-06-10T03:49:07;97370.22;;;17.36;100.00
5872;BME280;2962;51.312;7.378;2023-06-10T03:51:32;97379.56;;;17.42;100.00
5872;BME280;2962;51.312;7.378;2023-06-10T03:53:58;97385.81;;;17.46;100.00
5872;BME280;2962;51.312;7.378;2023-06-10T03:56:23;97382.69;;;17.44;100.00
5872;BME280;2962;51.312;7.378;2023-06-10T03:58:48;97387.00;;;17.45;100.00
5872;BME280;2962;51.312;7.378;2023-06-10T04:01:14;97385.59;;;17.61;100.00
5872;BME280;2962;51.312;7.378;2023-06-10T04:03:39;97378.31;;;17.74;100.00
5872;BME280;2962;51.312;7.378;2023-06-10T04:06:07;97390.31;;;17.87;100.00
5872;BME280;2962;51.312;7.378;2023-06-10T04:08:32;97380.22;;;17.80;100.00
5872;BME280;2962;51.312;7.378;2023-06-10T04:10:58;97389.94;;;17.89;100.00
5872;BME280;2962;51.312;7.378;2023-06-10T04:13:23;97381.59;;;17.92;100.00
5872;BME280;2962;51.312;7.378;2023-06-10T04:15:48;97385.06;;;17.96;100.00
5872;BME280;2962;51.312;7.378;2023-06-10T04:18:13;97393.47;;;18.13;100.00
5872;BME280;2962;51.312;7.378;2023-06-10T04:20:39;97388.44;;;18.08;100.00
5872;BME280;2962;51.312;7.378;2023-06-10T04:23:04;97395.06;;;18.10;100.00
5872;BME280;2962;51.312;7.378;2023-06-10T04:25:29;97396.41;;;18.25;100.00
5872;BME280;2962;51.312;7.378;2023-06-10T04:27:55;97401.13;;;18.25;100.00
5872;BME280;2962;51.312;7.378;2023-06-10T04:30:20;97409.25;;;18.12;100.00
5872;BME280;2962;51.312;7.378;2023-06-10T04:32:47;97396.50;;;17.95;100.00
5872;BME280;2962;51.312;7.378;2023-06-10T04:35:12;97397.75;;;17.90;100.00
5872;BME280;2962;51.312;7.378;2023-06-10T04:37:39;97402.88;;;17.92;100.00
5872;BME280;2962;51.312;7.378;2023-06-10T04:40:05;97413.38;;;18.00;100.00
5872;BME280;2962;51.312;7.378;2023-06-10T04:42:31;97402.50;;;17.90;100.00
5872;BME280;2962;51.312;7.378;2023-06-10T04:44:56;97407.97;;;17.93;100.00
5872;BME280;2962;51.312;7.378;2023-06-10T04:47:22;97410.78;;;17.90;100.00
5872;BME280;2962;51.312;7.378;2023-06-10T04:49:47;97407.47;;;17.98;100.00
5872;BME280;2962;51.312;7.378;2023-06-10T04:52:13;97400.06;;;17.95;100.00
5872;BME280;2962;51.312;7.378;2023-06-10T04:54:39;97404.31;;;18.00;100.00
5872;BME280;2962;51.312;7.378;2023-06-10T04:57:04;97386.69;;;17.94;100.00
5872;BME280;2962;51.312;7.378;2023-06-10T04:59:32;97406.09;;;18.10;100.00
5872;BME280;2962;51.312;7.378;2023-06-10T05:01:58;97411.22;;;18.12;100.00
5872;BME280;2962;51.312;7.378;2023-06-10T05:04:24;97405.75;;;18.08;100.00
5872;BME280;2962;51.312;7.378;2023-06-10T05:06:49;97392.69;;;18.12;100.00
5872;BME280;2962;51.312;7.378;2023-06-10T05:09:14;97395.03;;;18.14;100.00
5872;BME280;2962;51.312;7.378;2023-06-10T05:11:40;97403.22;;;18.17;100.00
5872;BME280;2962;51.312;7.378;2023-06-10T05:14:05;97401.19;;;18.21;100.00
5872;BME280;2962;51.312;7.378;2023-06-10T05:16:31;97399.91;;;18.29;100.00
5872;BME280;2962;51.312;7.378;2023-06-10T05:18:56;97406.53;;;18.32;100.00
5872;BME280;2962;51.312;7.378;2023-06-10T05:21:21;97398.91;;;18.40;100.00
5872;BME280;2962;51.312;7.378;2023-06-10T05:23:46;97399.50;;;18.51;100.00
5872;BME280;2962;51.312;7.378;2023-06-10T05:26:12;97406.50;;;18.55;100.00
5872;BME280;2962;51.312;7.378;2023-06-10T05:28:37;97402.13;;;18.58;100.00
5872;BME280;2962;51.312;7.378;2023-06-10T05:31:03;97416.16;;;18.67;100.00
5872;BME280;2962;51.312;7.378;2023-06-10T05:33:28;97408.94;;;18.53;100.00
5872;BME280;2962;51.312;7.378;2023-06-10T05:35:53;97395.84;;;18.58;100.00
5872;BME280;2962;51.312;7.378;2023-06-10T05:38:18;97420.06;;;18.70;100.00
5872;BME280;2962;51.312;7.378;2023-06-10T05:40:44;97412.94;;;18.72;100.00
5872;BME280;2962;51.312;7.378;2023-06-10T05:43:09;97414.13;;;18.71;100.00
5872;BME280;2962;51.312;7.378;2023-06-10T05:45:36;97409.63;;;18.81;100.00
5872;BME280;2962;51.312;7.378;2023-06-10T05:48:02;97417.34;;;18.90;100.00
5872;BME280;2962;51.312;7.378;2023-06-10T05:50:27;97414.94;;;18.92;100.00
5872;BME280;2962;51.312;7.378;2023-06-10T05:52:52;97416.41;;;18.96;100.00
5872;BME280;2962;51.312;7.378;2023-06-10T05:55:19;97423.34;;;19.05;100.00
5872;BME280;2962;51.312;7.378;2023-06-10T05:57:45;97424.00;;;19.12;100.00
5872;BME280;2962;51.312;7.378;2023-06-10T06:00:10;97415.28;;;19.14;100.00
5872;BME280;2962;51.312;7.378;2023-06-10T06:02:36;97420.66;;;19.21;100.00
5872;BME280;2962;51.312;7.378;2023-06-10T06:05:01;97417.34;;;19.30;100.00
5872;BME280;2962;51.312;7.378;2023-06-10T06:07:26;97411.72;;;19.33;100.00
5872;BME280;2962;51.312;7.378;2023-06-10T06:09:52;97411.56;;;19.40;100.00
5872;BME280;2962;51.312;7.378;2023-06-10T06:12:17;97423.72;;;19.63;100.00
5872;BME280;2962;51.312;7.378;2023-06-10T06:14:42;97405.38;;;19.72;100.00
5872;BME280;2962;51.312;7.378;2023-06-10T06:17:09;97417.13;;;19.77;100.00
5872;BME280;2962;51.312;7.378;2023-06-10T06:19:35;97417.72;;;20.00;100.00
5872;BME280;2962;51.312;7.378;2023-06-10T06:22:00;97421.72;;;20.16;100.00
5872;BME280;2962;51.312;7.378;2023-06-10T06:24:25;97423.00;;;20.28;100.00
5872;BME280;2962;51.312;7.378;2023-06-10T06:26:51;97419.44;;;20.43;100.00
5872;BME280;2962;51.312;7.378;2023-06-10T06:29:16;97401.03;;;20.53;100.00
5872;BME280;2962;51.312;7.378;2023-06-10T06:31:41;97418.94;;;20.65;100.00
5872;BME280;2962;51.312;7.378;2023-06-10T06:34:06;97418.16;;;20.64;100.00
5872;BME280;2962;51.312;7.378;2023-06-10T06:36:32;97427.09;;;20.85;100.00
5872;BME280;2962;51.312;7.378;2023-06-10T06:38:57;97419.41;;;20.76;100.00
5872;BME280;2962;51.312;7.378;2023-06-10T06:41:24;97419.00;;;20.90;100.00
5872;BME280;2962;51.312;7.378;2023-06-10T06:43:51;97424.03;;;20.95;100.00
5872;BME280;2962;51.312;7.378;2023-06-10T06:46:16;97422.63;;;21.04;100.00
5872;BME280;2962;51.312;7.378;2023-06-10T06:48:41;97435.28;;;21.17;100.00
5872;BME280;2962;51.312;7.378;2023-06-10T06:51:06;97433.75;;;21.29;100.00
5872;BME280;2962;51.312;7.378;2023-06-10T06:53:32;97428.94;;;21.33;100.00
5872;BME280;2962;51.312;7.378;2023-06-10T06:55:57;97432.50;;;21.47;100.00
5872;BME280;2962;51.312;7.378;2023-06-10T06:58:22;97423.00;;;21.60;100.00
5872;BME280;2962;51.312;7.378;2023-06-10T07:00:48;97438.50;;;21.70;100.00
5872;BME280;2962;51.312;7.378;2023-06-10T07:03:13;97440.28;;;21.77;100.00
5872;BME280;2962;51.312;7.378;2023-06-10T07:05:38;97449.72;;;21.80;100.00
5872;BME280;2962;51.312;7.378;2023-06-10T07:08:04;97441.63;;;21.85;100.00
5872;BME280;2962;51.312;7.378;2023-06-10T07:10:29;97442.06;;;22.09;100.00
5872;BME280;2962;51.312;7.378;2023-06-10T07:12:55;97445.72;;;22.32;100.00
5872;BME280;2962;51.312;7.378;2023-06-10T07:15:20;97444.84;;;22.35;100.00
5872;BME280;2962;51.312;7.378;2023-06-10T07:17:45;97438.75;;;22.27;100.00
5872;BME280;2962;51.312;7.378;2023-06-10T07:20:11;97447.50;;;22.38;100.00
5872;BME280;2962;51.312;7.378;2023-06-10T07:22:37;97451.28;;;22.32;100.00
5872;BME280;2962;51.312;7.378;2023-06-10T07:25:04;97442.91;;;22.57;100.00
5872;BME280;2962;51.312;7.378;2023-06-10T07:27:29;97440.53;;;22.69;100.00
5872;BME280;2962;51.312;7.378;2023-06-10T07:29:55;97438.03;;;22.83;100.00
5872;BME280;2962;51.312;7.378;2023-06-10T07:32:20;97453.38;;;23.10;100.00
5872;BME280;2962;51.312;7.378;2023-06-10T07:34:47;97433.38;;;23.15;100.00
5872;BME280;2962;51.312;7.378;2023-06-10T07:37:12;97448.72;;;23.51;100.00
5872;BME280;2962;51.312;7.378;2023-06-10T07:39:38;97443.78;;;23.55;100.00
5872;BME280;2962;51.312;7.378;2023-06-10T07:42:03;97431.63;;;23.61;100.00
5872;BME280;2962;51.312;7.378;2023-06-10T07:44:29;97438.31;;;23.64;100.00
5872;BME280;2962;51.312;7.378;2023-06-10T07:46:54;97435.66;;;23.60;100.00
5872;BME280;2962;51.312;7.378;2023-06-10T07:49:19;97451.19;;;23.49;100.00
5872;BME280;2962;51.312;7.378;2023-06-10T07:51:44;97448.47;;;23.58;100.00
5872;BME280;2962;51.312;7.378;2023-06-10T07:54:10;97441.41;;;23.66;100.00
5872;BME280;2962;51.312;7.378;2023-06-10T07:56:37;97447.84;;;23.85;100.00
5872;BME280;2962;51.312;7.378;2023-06-10T07:59:02;97449.31;;;23.99;100.00
5872;BME280;2962;51.312;7.378;2023-06-10T08:01:28;97444.22;;;24.06;100.00
5872;BME280;2962;51.312;7.378;2023-06-10T08:03:55;97459.66;;;24.39;100.00
5872;BME280;2962;51.312;7.378;2023-06-10T08:06:20;97444.03;;;24.41;100.00
5872;BME280;2962;51.312;7.378;2023-06-10T08:08:45;97445.91;;;24.63;100.00
5872;BME280;2962;51.312;7.378;2023-06-10T08:11:11;97446.88;;;24.69;100.00
5872;BME280;2962;51.312;7.378;2023-06-10T08:13:36;97455.22;;;24.69;100.00
5872;BME280;2962;51.312;7.378;2023-06-10T08:16:02;97453.38;;;24.93;100.00
5872;BME280;2962;51.312;7.378;2023-06-10T08:18:28;97449.81;;;24.83;100.00
5872;BME280;2962;51.312;7.378;2023-06-10T08:20:53;97449.66;;;25.05;100.00
5872;BME280;2962;51.312;7.378;2023-06-10T08:23:19;97459.41;;;25.28;100.00
5872;BME280;2962;51.312;7.378;2023-06-10T08:25:44;97458.16;;;25.02;100.00
5872;BME280;2962;51.312;7.378;2023-06-10T08:28:10;97461.75;;;24.84;100.00
5872;BME280;2962;51.312;7.378;2023-06-10T08:30:35;97464.38;;;24.97;100.00
5872;BME280;2962;51.312;7.378;2023-06-10T08:33:00;97464.34;;;25.06;100.00
5872;BME280;2962;51.312;7.378;2023-06-10T08:35:25;97463.75;;;24.83;100.00
5872;BME280;2962;51.312;7.378;2023-06-10T08:37:51;97464.97;;;24.82;100.00
5872;BME280;2962;51.312;7.378;2023-06-10T08:40:16;97456.31;;;25.08;100.00
5872;BME280;2962;51.312;7.378;2023-06-10T08:42:54;97468.09;;;25.03;100.00
5872;BME280;2962;51.312;7.378;2023-06-10T08:45:23;97468.38;;;24.87;100.00
5872;BME280;2962;51.312;7.378;2023-06-10T08:47:50;97474.59;;;25.27;100.00
5872;BME280;2962;51.312;7.378;2023-06-10T08:50:18;97466.25;;;25.18;100.00
5872;BME280;2962;51.312;7.378;2023-06-10T08:52:47;97478.66;;;25.26;100.00
5872;BME280;2962;51.312;7.378;2023-06-10T08:57:45;97472.53;;;25.55;100.00
5872;BME280;2962;51.312;7.378;2023-06-10T09:00:12;97460.25;;;25.71;100.00
5872;BME280;2962;51.312;7.378;2023-06-10T09:02:37;97469.56;;;25.77;100.00
5872;BME280;2962;51.312;7.378;2023-06-10T09:05:03;97469.91;;;25.79;100.00
5872;BME280;2962;51.312;7.378;2023-06-10T09:07:30;97470.19;;;25.72;100.00
5872;BME280;2962;51.312;7.378;2023-06-10T09:09:57;97470.94;;;26.24;100.00
5872;BME280;2962;51.312;7.378;2023-06-10T09:12:22;97458.41;;;26.20;100.00
5872;BME280;2962;51.312;7.378;2023-06-10T09:14:48;97465.44;;;26.48;100.00
5872;BME280;2962;51.312;7.378;2023-06-10T09:17:13;97455.97;;;26.46;100.00
5872;BME280;2962;51.312;7.378;2023-06-10T09:19:39;97461.09;;;26.71;100.00
5872;BME280;2962;51.312;7.378;2023-06-10T09:22:05;97455.81;;;26.88;100.00
5872;BME280;2962;51.312;7.378;2023-06-10T09:24:30;97462.31;;;27.09;100.00
5872;BME280;2962;51.312;7.378;2023-06-10T09:27:07;97466.31;;;27.17;100.00
5872;BME280;2962;51.312;7.378;2023-06-10T09:29:55;97464.72;;;27.55;100.00
5872;BME280;2962;51.312;7.378;2023-06-10T09:32:21;97466.53;;;27.29;100.00
5872;BME280;2962;51.312;7.378;2023-06-10T09:34:48;97469.16;;;27.32;100.00
5872;BME280;2962;51.312;7.378;2023-06-10T09:37:20;97470.41;;;27.31;100.00
5872;BME280;2962;51.312;7.378;2023-06-10T09:40:01;97463.97;;;27.55;100.00
5872;BME280;2962;51.312;7.378;2023-06-10T09:42:26;97467.81;;;27.57;100.00
5872;BME280;2962;51.312;7.378;2023-06-10T09:44:52;97459.31;;;27.66;100.00
5872;BME280;2962;51.312;7.378;2023-06-10T09:47:21;97464.16;;;27.66;100.00
5872;BME280;2962;51.312;7.378;2023-06-10T09:49:47;97465.50;;;28.00;100.00
5872;BME280;2962;51.312;7.378;2023-06-10T09:52:13;97456.53;;;28.46;100.00
5872;BME280;2962;51.312;7.378;2023-06-10T09:54:38;97463.63;;;28.62;100.00
5872;BME280;2962;51.312;7.378;2023-06-10T09:57:07;97458.94;;;28.53;100.00
5872;BME280;2962;51.312;7.378;2023-06-10T09:59:37;97463.41;;;28.65;100.00
5872;BME280;2962;51.312;7.378;2023-06-10T10:02:02;97465.31;;;28.74;100.00
5872;BME280;2962;51.312;7.378;2023-06-10T10:04:29;97467.81;;;28.92;100.00
5872;BME280;2962;51.312;7.378;2023-06-10T10:06:55;97459.41;;;29.13;100.00
5872;BME280;2962;51.312;7.378;2023-06-10T10:09:20;97456.03;;;29.29;100.00
5872;BME280;2962;51.312;7.378;2023-06-10T10:11:45;97462.56;;;29.47;100.00
5872;BME280;2962;51.312;7.378;2023-06-10T10:14:13;97458.78;;;29.24;100.00
5872;BME280;2962;51.312;7.378;2023-06-10T10:16:40;97450.34;;;29.24;100.00
5872;BME280;2962;51.312;7.378;2023-06-10T10:19:16;97450.13;;;29.53;100.00
5872;BME280;2962;51.312;7.378;2023-06-10T10:21:54;97445.63;;;29.35;100.00
5872;BME280;2962;51.312;7.378;2023-06-10T10:24:25;97454.78;;;29.56;100.00
5872;BME280;2962;51.312;7.378;2023-06-10T10:26:54;97455.59;;;29.94;100.00
5872;BME280;2962;51.312;7.378;2023-06-10T10:29:29;97456.72;;;30.39;100.00
5872;BME280;2962;51.312;7.378;2023-06-10T10:31:56;97460.88;;;30.50;100.00
5872;BME280;2962;51.312;7.378;2023-06-10T10:34:49;97457.03;;;30.96;100.00
5872;BME280;2962;51.312;7.378;2023-06-10T10:37:17;97438.41;;;30.55;100.00
5872;BME280;2962;51.312;7.378;2023-06-10T10:39:44;97450.63;;;29.78;100.00
5872;BME280;2962;51.312;7.378;2023-06-10T10:42:10;97455.16;;;28.77;100.00
5872;BME280;2962;51.312;7.378;2023-06-10T10:44:38;97453.88;;;28.22;100.00
5872;BME280;2962;51.312;7.378;2023-06-10T10:47:08;97463.50;;;27.56;100.00
5872;BME280;2962;51.312;7.378;2023-06-10T10:49:35;97454.75;;;27.24;100.00
5872;BME280;2962;51.312;7.378;2023-06-10T10:52:02;97452.31;;;26.78;100.00
5872;BME280;2962;51.312;7.378;2023-06-10T10:54:36;97454.41;;;26.69;100.00
5872;BME280;2962;51.312;7.378;2023-06-10T10:57:23;97459.47;;;26.56;100.00
5872;BME280;2962;51.312;7.378;2023-06-10T11:05:00;97448.03;;;27.31;100.00
5872;BME280;2962;51.312;7.378;2023-06-10T11:07:25;97444.66;;;27.42;100.00
5872;BME280;2962;51.312;7.378;2023-06-10T11:10:01;97443.88;;;27.86;100.00
5872;BME280;2962;51.312;7.378;2023-06-10T11:15:11;97437.09;;;30.99;100.00
5872;BME280;2962;51.312;7.378;2023-06-10T11:17:36;97443.97;;;30.93;98.22
5872;BME280;2962;51.312;7.378;2023-06-10T11:20:02;97434.50;;;29.73;100.00
5872;BME280;2962;51.312;7.378;2023-06-10T11:22:28;97431.34;;;29.91;100.00
5872;BME280;2962;51.312;7.378;2023-06-10T11:24:53;97436.22;;;29.96;100.00
5872;BME280;2962;51.312;7.378;2023-06-10T11:27:23;97439.69;;;29.80;100.00
5872;BME280;2962;51.312;7.378;2023-06-10T11:32:30;97431.81;;;30.21;100.00
5872;BME280;2962;51.312;7.378;2023-06-10T11:34:59;97434.94;;;31.88;100.00
5872;BME280;2962;51.312;7.378;2023-06-10T11:37:27;97444.63;;;32.48;96.71
5872;BME280;2962;51.312;7.378;2023-06-10T11:39:54;97434.91;;;32.16;94.58
5872;BME280;2962;51.312;7.378;2023-06-10T11:42:20;97438.75;;;31.62;98.44
5872;BME280;2962;51.312;7.378;2023-06-10T11:44:49;97438.75;;;32.13;92.44
5872;BME280;2962;51.312;7.378;2023-06-10T11:47:16;97432.09;;;32.21;97.23
5872;BME280;2962;51.312;7.378;2023-06-10T11:49:41;97433.41;;;32.03;85.07
5872;BME280;2962;51.312;7.378;2023-06-10T11:52:06;97435.44;;;31.86;94.72
5872;BME280;2962;51.312;7.378;2023-06-10T11:54:31;97426.47;;;32.21;91.52
5872;BME280;2962;51.312;7.378;2023-06-10T11:56:58;97438.00;;;33.51;77.20
5872;BME280;2962;51.312;7.378;2023-06-10T11:59:27;97429.13;;;33.71;77.43
5872;BME280;2962;51.312;7.378;2023-06-10T12:01:53;97433.09;;;33.87;76.36
5872;BME280;2962;51.312;7.378;2023-06-10T12:04:18;97419.44;;;34.89;64.58
5872;BME280;2962;51.312;7.378;2023-06-10T12:06:48;97419.38;;;35.84;61.87
5872;BME280;2962;51.312;7.378;2023-06-10T12:09:20;97415.97;;;35.02;66.65
5872;BME280;2962;51.312;7.378;2023-06-10T12:11:48;97415.72;;;35.38;64.33
5872;BME280;2962;51.312;7.378;2023-06-10T12:14:14;97417.19;;;35.07;60.25
5872;BME280;2962;51.312;7.378;2023-06-10T12:16:39;97425.66;;;35.44;60.36
5872;BME280;2962;51.312;7.378;2023-06-10T12:19:05;97412.34;;;35.02;56.25
5872;BME280;2962;51.312;7.378;2023-06-10T12:21:32;97413.50;;;35.12;60.75
5872;BME280;2962;51.312;7.378;2023-06-10T12:24:10;97408.28;;;35.54;51.88
5872;BME280;2962;51.312;7.378;2023-06-10T12:26:40;97407.38;;;36.63;56.08
5872;BME280;2962;51.312;7.378;2023-06-10T12:29:31;97406.72;;;36.43;54.48
5872;BME280;2962;51.312;7.378;2023-06-10T12:32:04;97405.00;;;36.54;56.69
5872;BME280;2962;51.312;7.378;2023-06-10T12:34:32;97397.44;;;36.96;49.66
5872;BME280;2962;51.312;7.378;2023-06-10T12:36:58;97401.22;;;37.12;47.82
5872;BME280;2962;51.312;7.378;2023-06-10T12:39:24;97396.78;;;36.77;49.14
5872;BME280;2962;51.312;7.378;2023-06-10T12:41:51;97392.75;;;36.19;49.66
5872;BME280;2962;51.312;7.378;2023-06-10T12:44:16;97397.25;;;36.54;50.57
5872;BME280;2962;51.312;7.378;2023-06-10T12:46:41;97408.00;;;37.09;45.77
5872;BME280;2962;51.312;7.378;2023-06-10T12:49:07;97397.84;;;37.00;45.34
5872;BME280;2962;51.312;7.378;2023-06-10T12:51:32;97393.41;;;37.60;43.39
5872;BME280;2962;51.312;7.378;2023-06-10T12:53:59;97387.56;;;37.10;45.60
5872;BME280;2962;51.312;7.378;2023-06-10T12:56:24;97395.56;;;37.67;42.52
5872;BME280;2962;51.312;7.378;2023-06-10T12:58:50;97392.88;;;36.66;43.79
5872;BME280;2962;51.312;7.378;2023-06-10T13:01:15;97388.94;;;36.43;44.41
5872;BME280;2962;51.312;7.378;2023-06-10T13:03:40;97379.22;;;35.47;45.24
5872;BME280;2962;51.312;7.378;2023-06-10T13:06:09;97379.59;;;35.25;45.63
5872;BME280;2962;51.312;7.378;2023-06-10T13:08:34;97380.19;;;36.01;48.39
5872;BME280;2962;51.312;7.378;2023-06-10T13:11:00;97390.19;;;37.84;43.18
5872;BME280;2962;51.312;7.378;2023-06-10T13:13:25;97389.81;;;38.95;38.02
5872;BME280;2962;51.312;7.378;2023-06-10T13:15:51;97385.00;;;37.96;38.09
5872;BME280;2962;51.312;7.378;2023-06-10T13:18:17;97381.41;;;36.46;39.39
5872;BME280;2962;51.312;7.378;2023-06-10T13:20:44;97385.22;;;34.49;44.14
5872;BME280;2962;51.312;7.378;2023-06-10T13:23:10;97390.78;;;35.17;48.55